createdAt,value
2022-09-07T00:01:08.612Z,9.50
2022-09-07T00:03:36.671Z,9.70
2022-09-07T00:06:12.520Z,9.38
2022-09-07T00:08:41.013Z,9.27
2022-09-07T00:11:15.839Z,9.10
2022-09-07T00:13:45.737Z,9.05
2022-09-07T00:16:19.219Z,8.77
2022-09-07T00:18:46.720Z,11.15
2022-09-07T00:21:16.363Z,10.15
2022-09-07T00:23:46.128Z,10.05
2022-09-07T00:26:16.135Z,10.57
2022-09-07T00:28:45.816Z,10.05
2022-09-07T00:31:19.656Z,10.20
2022-09-07T00:33:49.123Z,9.77
2022-09-07T00:36:17.493Z,10.02
2022-09-07T00:38:44.901Z,9.98
2022-09-07T00:41:12.099Z,9.63
2022-09-07T00:43:42.055Z,9.77
2022-09-07T00:46:38.585Z,10.18
2022-09-07T00:49:08.870Z,10.82
2022-09-07T00:51:53.121Z,9.15
2022-09-07T00:54:34.320Z,10.73
2022-09-07T00:57:01.664Z,10.57
2022-09-07T00:59:40.023Z,9.90
2022-09-07T01:02:08.395Z,10.65
2022-09-07T01:04:36.489Z,12.05
2022-09-07T01:07:06.422Z,12.50
2022-09-07T01:09:33.546Z,12.38
2022-09-07T01:12:02.195Z,12.57
2022-09-07T01:14:40.362Z,12.68
2022-09-07T01:17:13.245Z,12.85
2022-09-07T01:20:12.335Z,13.68
2022-09-07T01:22:45.581Z,13.98
2022-09-07T01:25:18.884Z,13.77
2022-09-07T01:28:22.894Z,13.75
2022-09-07T01:31:10.301Z,13.35
2022-09-07T01:33:46.599Z,12.75
2022-09-07T01:36:17.884Z,11.80
2022-09-07T01:39:08.318Z,12.68
2022-09-07T01:41:52.017Z,12.43
2022-09-07T01:44:28.654Z,12.00
2022-09-07T01:47:09.778Z,12.52
2022-09-07T01:49:42.186Z,11.35
2022-09-07T01:52:41.141Z,11.77
2022-09-07T01:55:18.838Z,12.93
2022-09-07T01:57:54.780Z,12.48
2022-09-07T02:00:23.230Z,13.20
2022-09-07T02:03:04.674Z,12.38
2022-09-07T02:05:43.141Z,12.60
2022-09-07T02:08:18.964Z,12.43
2022-09-07T02:10:52.423Z,11.85
2022-09-07T02:13:28.313Z,12.13
2022-09-07T02:16:11.184Z,11.85
2022-09-07T02:18:44.587Z,12.65
2022-09-07T02:21:15.592Z,12.85
2022-09-07T02:24:07.897Z,12.40
2022-09-07T02:26:38.812Z,11.52
2022-09-07T02:29:08.575Z,12.48
2022-09-07T02:31:35.635Z,11.80
2022-09-07T02:34:03.349Z,12.45
2022-09-07T02:36:35.528Z,12.38
2022-09-07T02:39:02.611Z,12.63
2022-09-07T02:41:31.932Z,12.93
2022-09-07T02:44:00.095Z,12.57
2022-09-07T02:47:04.669Z,12.07
2022-09-07T02:49:44.196Z,11.35
2022-09-07T02:52:46.780Z,12.68
2022-09-07T02:55:40.963Z,11.75
2022-09-07T02:58:32.707Z,12.20
2022-09-07T03:01:33.397Z,12.45
2022-09-07T03:04:20.725Z,12.65
2022-09-07T03:07:13.541Z,13.20
2022-09-07T03:09:49.619Z,12.77
2022-09-07T03:12:17.418Z,12.20
2022-09-07T03:14:45.326Z,13.90
2022-09-07T03:17:13.987Z,12.65
2022-09-07T03:19:41.323Z,13.57
2022-09-07T03:22:08.481Z,12.73
2022-09-07T03:24:36.819Z,12.55
2022-09-07T03:27:04.094Z,12.68
2022-09-07T03:29:31.162Z,13.60
2022-09-07T03:31:58.119Z,12.52
2022-09-07T03:34:25.404Z,13.40
2022-09-07T03:36:52.506Z,12.70
2022-09-07T03:39:23.943Z,12.07
2022-09-07T03:41:51.253Z,12.52
2022-09-07T03:44:18.492Z,13.07
2022-09-07T03:46:45.651Z,13.38
2022-09-07T03:49:15.330Z,12.93
2022-09-07T03:51:42.287Z,13.55
2022-09-07T03:54:09.269Z,11.88
2022-09-07T03:56:36.510Z,12.93
2022-09-07T03:59:03.700Z,12.40
2022-09-07T04:01:30.800Z,12.27
2022-09-07T04:04:02.110Z,12.98
2022-09-07T04:06:30.751Z,13.18
2022-09-07T04:09:02.019Z,12.23
2022-09-07T04:11:29.190Z,13.90
2022-09-07T04:13:56.139Z,13.38
2022-09-07T04:16:25.280Z,12.90
2022-09-07T04:18:57.991Z,13.05
2022-09-07T04:21:27.096Z,13.18
2022-09-07T04:23:54.446Z,13.95
2022-09-07T04:26:24.367Z,12.82
2022-09-07T04:28:52.175Z,11.93
2022-09-07T04:31:20.704Z,12.52
2022-09-07T04:33:49.254Z,13.23
2022-09-07T04:36:18.078Z,13.07
2022-09-07T04:38:53.383Z,12.40
2022-09-07T04:41:25.167Z,13.13
2022-09-07T04:43:55.226Z,13.07
2022-09-07T04:46:25.601Z,12.55
2022-09-07T04:48:55.224Z,12.88
2022-09-07T04:51:25.147Z,12.13
2022-09-07T04:53:55.891Z,12.60
2022-09-07T04:56:23.941Z,12.02
2022-09-07T04:58:51.676Z,11.70
2022-09-07T05:01:21.520Z,12.07
2022-09-07T05:03:49.923Z,12.82
2022-09-07T05:06:19.187Z,12.02
2022-09-07T05:08:49.736Z,12.10
2022-09-07T05:11:18.450Z,12.50
2022-09-07T05:13:45.809Z,13.27
2022-09-07T05:16:15.609Z,11.85
2022-09-07T05:18:42.942Z,11.07
2022-09-07T05:21:12.093Z,11.30
2022-09-07T05:23:39.770Z,12.98
2022-09-07T05:26:07.068Z,11.63
2022-09-07T05:28:35.294Z,10.95
2022-09-07T05:31:18.603Z,11.48
2022-09-07T05:36:44.711Z,11.93
2022-09-07T05:39:12.076Z,11.68
2022-09-07T05:41:39.175Z,10.60
2022-09-07T05:46:54.372Z,12.15
2022-09-07T05:49:21.406Z,11.57
2022-09-07T05:51:48.845Z,11.75
2022-09-07T05:54:15.990Z,11.80
2022-09-07T05:56:43.963Z,10.95
2022-09-07T05:59:13.525Z,10.07
2022-09-07T06:01:40.838Z,11.35
2022-09-07T06:04:08.842Z,9.60
2022-09-07T06:06:40.676Z,10.75
2022-09-07T06:09:11.482Z,11.45
2022-09-07T06:11:41.063Z,10.85
2022-09-07T06:14:08.304Z,10.32
2022-09-07T06:16:35.728Z,11.18
2022-09-07T06:19:08.726Z,9.93
2022-09-07T06:21:39.591Z,10.10
2022-09-07T06:24:06.959Z,9.40
2022-09-07T06:26:34.322Z,9.18
2022-09-07T06:29:02.719Z,9.82
2022-09-07T06:31:30.150Z,8.73
2022-09-07T06:33:57.546Z,7.90
2022-09-07T06:36:27.876Z,7.93
2022-09-07T06:38:59.076Z,7.97
2022-09-07T06:44:25.347Z,7.13
2022-09-07T06:47:07.747Z,7.22
2022-09-07T06:49:35.125Z,7.55
2022-09-07T06:52:03.396Z,6.82
2022-09-07T06:57:23.097Z,6.45
2022-09-07T06:59:55.441Z,5.88
2022-09-07T07:02:22.706Z,5.93
2022-09-07T07:04:50.210Z,5.72
2022-09-07T07:07:17.454Z,5.47
2022-09-07T07:09:47.062Z,5.18
2022-09-07T07:12:14.108Z,4.80
2022-09-07T07:14:44.896Z,5.53
2022-09-07T07:17:13.037Z,5.05
2022-09-07T07:19:40.151Z,4.65
2022-09-07T07:22:29.139Z,5.05
2022-09-07T07:24:56.662Z,4.78
2022-09-07T07:27:23.977Z,4.40
2022-09-07T07:29:52.524Z,4.88
2022-09-07T07:32:19.869Z,5.25
2022-09-07T07:34:46.925Z,5.43
2022-09-07T07:37:15.109Z,5.30
2022-09-07T07:42:30.507Z,5.47
2022-09-07T07:47:53.504Z,6.75
2022-09-07T07:50:35.990Z,5.40
2022-09-07T07:55:50.944Z,6.47
2022-09-07T07:58:18.565Z,7.18
2022-09-07T08:00:55.458Z,6.63
2022-09-07T08:03:24.191Z,8.70
2022-09-07T08:05:53.601Z,5.63
2022-09-07T08:08:24.166Z,5.50
2022-09-07T08:10:52.211Z,5.20
2022-09-07T08:13:19.350Z,4.93
2022-09-07T08:15:48.458Z,4.85
2022-09-07T08:18:19.106Z,6.47
2022-09-07T08:20:46.665Z,6.55
2022-09-07T08:23:14.773Z,5.55
2022-09-07T08:25:52.845Z,6.05
2022-09-07T08:28:23.825Z,5.35
2022-09-07T08:30:51.049Z,5.28
2022-09-07T08:33:18.255Z,6.00
2022-09-07T08:36:02.887Z,6.47
2022-09-07T08:38:32.098Z,4.20
2022-09-07T08:41:00.097Z,6.82
2022-09-07T08:43:49.275Z,6.03
2022-09-07T08:46:42.574Z,5.47
2022-09-07T08:49:40.609Z,5.45
2022-09-07T08:52:48.396Z,5.18
2022-09-07T08:55:21.999Z,4.68
2022-09-07T08:57:57.270Z,4.93
2022-09-07T09:00:24.292Z,5.03
2022-09-07T09:06:05.241Z,4.68
2022-09-07T09:09:03.731Z,5.80
2022-09-07T09:11:49.649Z,4.50
2022-09-07T09:14:23.281Z,4.80
2022-09-07T09:16:57.221Z,5.03
2022-09-07T09:19:39.848Z,6.30
2022-09-07T09:22:13.759Z,5.00
2022-09-07T09:25:07.612Z,5.20
2022-09-07T09:27:34.602Z,5.63
2022-09-07T09:30:18.708Z,5.55
2022-09-07T09:32:48.543Z,4.93
2022-09-07T09:35:34.518Z,4.68
2022-09-07T09:38:04.113Z,4.80
2022-09-07T09:40:34.063Z,4.95
2022-09-07T09:43:03.795Z,5.45
2022-09-07T09:48:36.881Z,5.60
2022-09-07T09:54:07.938Z,5.53
2022-09-07T09:56:40.926Z,5.72
2022-09-07T10:05:29.534Z,5.43
2022-09-07T10:07:57.160Z,5.18
2022-09-07T10:10:26.510Z,5.13
2022-09-07T10:12:55.251Z,4.97
2022-09-07T10:15:41.722Z,4.45
2022-09-07T10:18:21.454Z,5.22
2022-09-07T10:20:49.009Z,4.68
2022-09-07T10:23:23.940Z,4.35
2022-09-07T10:25:53.697Z,4.53
2022-09-07T10:28:23.935Z,4.15
2022-09-07T10:31:14.726Z,4.65
2022-09-07T10:34:26.154Z,4.32
2022-09-07T10:37:03.031Z,5.00
2022-09-07T10:39:37.253Z,4.82
2022-09-07T10:42:29.367Z,4.57
2022-09-07T10:45:08.599Z,4.80
2022-09-07T10:47:53.241Z,5.43
2022-09-07T10:50:47.866Z,4.72
2022-09-07T10:53:42.299Z,4.85
2022-09-07T10:56:21.034Z,4.57
2022-09-07T10:59:06.454Z,5.45
2022-09-07T11:01:48.862Z,4.78
2022-09-07T11:04:18.734Z,4.55
2022-09-07T11:06:52.207Z,4.88
2022-09-07T11:09:50.970Z,5.28
2022-09-07T11:12:27.916Z,6.18
2022-09-07T11:15:15.107Z,5.97
2022-09-07T11:17:55.135Z,4.97
2022-09-07T11:20:27.043Z,5.03
2022-09-07T11:23:12.210Z,5.00
2022-09-07T11:25:54.165Z,5.32
2022-09-07T11:28:26.345Z,5.15
2022-09-07T11:31:00.558Z,5.25
2022-09-07T11:33:36.481Z,5.25
2022-09-07T11:36:13.205Z,4.50
2022-09-07T11:38:57.635Z,4.30
2022-09-07T11:41:29.549Z,4.50
2022-09-07T11:44:02.688Z,4.65
2022-09-07T11:46:38.267Z,5.15
2022-09-07T11:49:13.163Z,4.97
2022-09-07T11:51:46.534Z,4.55
2022-09-07T11:54:22.651Z,5.13
2022-09-07T11:57:08.407Z,4.63
2022-09-07T11:59:38.565Z,4.45
2022-09-07T12:02:18.657Z,4.65
2022-09-07T12:05:06.511Z,4.90
2022-09-07T12:07:36.372Z,5.00
2022-09-07T12:10:06.918Z,4.72
2022-09-07T12:12:43.855Z,4.82
2022-09-07T12:15:32.989Z,4.40
2022-09-07T12:18:24.513Z,4.18
2022-09-07T12:20:52.075Z,4.35
2022-09-07T12:23:25.508Z,5.13
2022-09-07T12:26:34.323Z,4.40
2022-09-07T12:29:01.766Z,5.05
2022-09-07T12:31:57.144Z,4.20
2022-09-07T12:34:31.402Z,4.38
2022-09-07T12:37:03.627Z,4.13
2022-09-07T12:39:35.139Z,4.40
2022-09-07T12:45:30.090Z,4.55
2022-09-07T12:47:59.866Z,4.72
2022-09-07T12:50:40.157Z,4.50
2022-09-07T12:53:13.823Z,4.50
2022-09-07T12:59:16.061Z,4.05
2022-09-07T13:02:07.728Z,3.90
2022-09-07T13:04:46.969Z,4.18
2022-09-07T13:07:19.387Z,4.20
2022-09-07T13:10:36.288Z,4.13
2022-09-07T13:13:14.883Z,3.97
2022-09-07T13:15:51.355Z,4.05
2022-09-07T13:18:30.366Z,4.40
2022-09-07T13:21:09.774Z,4.00
2022-09-07T13:23:38.133Z,4.22
2022-09-07T13:26:12.421Z,4.65
2022-09-07T13:28:56.424Z,4.03
2022-09-07T13:31:38.827Z,3.90
2022-09-07T13:34:33.833Z,4.40
2022-09-07T13:37:03.301Z,4.97
2022-09-07T13:39:45.641Z,4.57
2022-09-07T13:42:22.643Z,4.25
2022-09-07T13:44:55.719Z,4.35
2022-09-07T13:47:40.393Z,4.07
2022-09-07T13:50:22.264Z,5.27
2022-09-07T13:53:14.038Z,4.10
2022-09-07T13:55:51.667Z,3.88
2022-09-07T13:58:39.689Z,4.10
2022-09-07T14:01:13.054Z,4.07
2022-09-07T14:03:51.743Z,3.97
2022-09-07T14:06:21.733Z,4.53
2022-09-07T14:08:54.379Z,5.13
2022-09-07T14:11:29.386Z,3.92
2022-09-07T14:14:11.673Z,4.18
2022-09-07T14:16:39.325Z,4.20
2022-09-07T14:19:18.827Z,4.00
2022-09-07T14:21:56.887Z,4.20
2022-09-07T14:24:31.105Z,3.85
2022-09-07T14:26:58.713Z,4.30
2022-09-07T14:29:32.219Z,4.15
2022-09-07T14:32:02.059Z,4.05
2022-09-07T14:34:37.635Z,3.70
2022-09-07T14:37:12.469Z,4.28
2022-09-07T14:39:42.621Z,3.80
2022-09-07T14:42:15.228Z,3.80
2022-09-07T14:44:45.638Z,4.25
2022-09-07T14:47:29.188Z,4.32
2022-09-07T14:50:05.206Z,4.05
2022-09-07T14:52:43.093Z,4.03
2022-09-07T14:55:28.536Z,4.15
2022-09-07T14:58:25.513Z,3.63
2022-09-07T15:03:56.845Z,3.53
2022-09-07T15:09:39.751Z,3.35
2022-09-07T15:12:38.852Z,4.05
2022-09-07T15:15:27.375Z,3.60
2022-09-07T15:18:02.865Z,3.53
2022-09-07T15:20:44.409Z,3.72
2022-09-07T15:23:14.277Z,3.45
2022-09-07T15:25:49.825Z,3.60
2022-09-07T15:34:12.889Z,3.70
2022-09-07T15:36:42.796Z,4.20
2022-09-07T15:39:36.204Z,3.17
2022-09-07T15:44:54.837Z,3.40
2022-09-07T15:50:11.964Z,3.45
2022-09-07T15:52:41.720Z,3.38
2022-09-07T15:55:09.346Z,3.60
2022-09-07T15:58:02.270Z,3.17
2022-09-07T16:00:23.712Z,3.30
2022-09-07T16:03:08.166Z,3.72
2022-09-07T16:05:35.975Z,3.35
2022-09-07T16:10:54.067Z,3.42
2022-09-07T16:13:24.525Z,3.35
2022-09-07T16:15:52.314Z,3.33
2022-09-07T16:18:19.741Z,3.60
2022-09-07T16:20:47.520Z,3.58
2022-09-07T16:23:19.199Z,3.17
2022-09-07T16:25:57.966Z,3.42
2022-09-07T16:28:25.823Z,3.78
2022-09-07T16:30:52.891Z,3.65
2022-09-07T16:33:19.986Z,3.67
2022-09-07T16:35:59.602Z,3.90
2022-09-07T16:38:47.396Z,3.30
2022-09-07T16:41:23.310Z,3.55
2022-09-07T16:43:50.773Z,3.60
2022-09-07T16:46:20.960Z,3.22
2022-09-07T16:48:48.550Z,3.03
2022-09-07T16:51:22.790Z,3.30
2022-09-07T16:53:52.983Z,3.10
2022-09-07T16:56:24.513Z,3.20
2022-09-07T16:58:56.733Z,3.03
2022-09-07T17:01:29.454Z,3.58
2022-09-07T17:03:57.064Z,3.53
2022-09-07T17:06:26.876Z,3.30
2022-09-07T17:08:55.106Z,3.17
2022-09-07T17:11:29.508Z,3.47
2022-09-07T17:13:59.297Z,3.33
2022-09-07T17:16:30.229Z,3.25
2022-09-07T17:21:48.329Z,3.30
2022-09-07T17:24:19.780Z,3.33
2022-09-07T17:26:47.600Z,3.05
2022-09-07T17:29:14.700Z,3.20
2022-09-07T17:34:31.709Z,3.35
2022-09-07T17:37:01.731Z,3.20
2022-09-07T17:39:29.406Z,3.50
2022-09-07T17:41:56.877Z,3.33
2022-09-07T17:44:23.916Z,3.50
2022-09-07T17:46:51.803Z,3.47
2022-09-07T17:49:19.230Z,3.58
2022-09-07T17:51:46.793Z,3.53
2022-09-07T17:54:16.815Z,3.63
2022-09-07T17:56:45.135Z,3.60
2022-09-07T18:02:01.136Z,3.78
2022-09-07T18:04:29.171Z,3.70
2022-09-07T18:06:56.677Z,4.00
2022-09-07T18:09:24.734Z,3.90
2022-09-07T18:11:52.408Z,3.80
2022-09-07T18:14:20.261Z,4.03
2022-09-07T18:16:50.130Z,4.50
2022-09-07T18:19:18.636Z,4.63
2022-09-07T18:21:48.185Z,3.92
2022-09-07T18:24:22.574Z,4.40
2022-09-07T18:26:52.778Z,4.22
2022-09-07T18:29:33.699Z,4.63
2022-09-07T18:32:08.922Z,4.63
2022-09-07T18:34:40.557Z,4.47
2022-09-07T18:37:08.930Z,4.70
2022-09-07T18:39:37.023Z,4.40
2022-09-07T18:42:05.036Z,4.97
2022-09-07T18:47:28.406Z,5.75
2022-09-07T18:49:57.395Z,5.78
2022-09-07T18:55:14.137Z,5.75
2022-09-07T18:57:42.582Z,4.88
2022-09-07T19:00:12.876Z,5.85
2022-09-07T19:02:41.287Z,7.07
2022-09-07T19:08:00.000Z,4.78
2022-09-07T19:10:27.969Z,5.88
2022-09-07T19:12:56.376Z,5.97
2022-09-07T19:15:24.179Z,5.60
2022-09-07T19:17:51.983Z,5.72
2022-09-07T19:20:19.381Z,5.60
2022-09-07T19:22:46.844Z,5.78
2022-09-07T19:25:14.525Z,5.30
2022-09-07T19:27:42.172Z,5.25
2022-09-07T19:30:12.397Z,6.18
2022-09-07T19:32:40.831Z,7.03
2022-09-07T19:35:08.523Z,7.97
2022-09-07T19:37:40.959Z,7.57
2022-09-07T19:40:11.975Z,7.55
2022-09-07T19:42:41.098Z,7.55
2022-09-07T19:45:09.020Z,8.05
2022-09-07T19:47:39.136Z,7.00
2022-09-07T19:50:06.902Z,6.80
2022-09-07T19:52:36.695Z,6.65
2022-09-07T19:55:04.809Z,5.85
2022-09-07T19:57:32.773Z,6.53
2022-09-07T20:00:00.672Z,6.30
2022-09-07T20:02:28.325Z,6.22
2022-09-07T20:04:56.069Z,6.95
2022-09-07T20:07:23.855Z,6.50
2022-09-07T20:09:54.123Z,6.90
2022-09-07T20:12:23.695Z,6.50
2022-09-07T20:14:51.126Z,5.70
2022-09-07T20:17:18.756Z,6.45
2022-09-07T20:19:46.049Z,6.72
2022-09-07T20:22:13.395Z,6.82
2022-09-07T20:24:41.170Z,6.18
2022-09-07T20:27:08.739Z,6.20
2022-09-07T20:29:36.286Z,6.82
2022-09-07T20:32:06.189Z,6.60
2022-09-07T20:34:33.807Z,6.63
2022-09-07T20:37:01.735Z,7.00
2022-09-07T20:39:29.252Z,6.72
2022-09-07T20:41:56.321Z,7.40
2022-09-07T20:44:23.497Z,6.90
2022-09-07T20:46:53.735Z,7.47
2022-09-07T20:49:21.517Z,7.22
2022-09-07T20:51:48.525Z,7.20
2022-09-07T20:54:18.262Z,7.32
2022-09-07T20:56:45.327Z,8.73
2022-09-07T20:59:12.702Z,8.20
2022-09-07T21:01:40.413Z,8.00
2022-09-07T21:04:07.482Z,7.45
2022-09-07T21:06:34.984Z,7.90
2022-09-07T21:09:05.194Z,7.72
2022-09-07T21:11:34.502Z,8.68
2022-09-07T21:14:06.774Z,7.78
2022-09-07T21:16:35.262Z,7.45
2022-09-07T21:19:06.105Z,7.90
2022-09-07T21:21:42.227Z,7.65
2022-09-07T21:24:19.947Z,8.45
2022-09-07T21:26:48.412Z,8.07
2022-09-07T21:29:24.244Z,7.38
2022-09-07T21:31:55.059Z,8.45
2022-09-07T21:34:23.419Z,7.82
2022-09-07T21:36:51.309Z,7.70
2022-09-07T21:39:18.787Z,8.13
2022-09-07T21:41:46.287Z,8.48
2022-09-07T21:44:18.219Z,8.77
2022-09-07T21:46:45.372Z,7.85
2022-09-07T21:49:12.701Z,8.32
2022-09-07T21:51:42.201Z,8.95
2022-09-07T21:54:09.650Z,9.90
2022-09-07T21:56:36.903Z,9.27
2022-09-07T21:59:08.762Z,9.43
2022-09-07T22:01:35.710Z,9.90
2022-09-07T22:04:04.812Z,9.73
2022-09-07T22:06:35.201Z,9.85
2022-09-07T22:09:03.725Z,10.30
2022-09-07T22:11:31.533Z,11.40
2022-09-07T22:14:01.621Z,9.57
2022-09-07T22:16:29.313Z,10.18
2022-09-07T22:18:58.707Z,10.27
2022-09-07T22:21:28.018Z,10.32
2022-09-07T22:23:57.564Z,10.00
2022-09-07T22:26:27.464Z,10.73
2022-09-07T22:28:55.726Z,10.60
2022-09-07T22:31:28.807Z,11.48
2022-09-07T22:33:57.219Z,10.85
2022-09-07T22:36:27.220Z,12.15
2022-09-07T22:38:56.624Z,11.82
2022-09-07T22:41:27.164Z,13.70
2022-09-07T22:43:54.922Z,10.70
2022-09-07T22:46:23.464Z,10.55
2022-09-07T22:48:51.075Z,10.50
2022-09-07T22:51:17.962Z,10.27
2022-09-07T22:53:44.999Z,10.55
2022-09-07T22:56:22.181Z,11.98
2022-09-07T22:58:51.981Z,10.55
2022-09-07T23:01:19.641Z,10.77
2022-09-07T23:03:47.019Z,10.90
2022-09-07T23:06:23.005Z,10.40
2022-09-07T23:08:51.701Z,11.50
2022-09-07T23:11:22.938Z,11.60
2022-09-07T23:13:52.749Z,11.77
2022-09-07T23:16:21.047Z,10.50
2022-09-07T23:18:48.390Z,10.57
2022-09-07T23:24:46.983Z,11.13
2022-09-07T23:27:15.189Z,10.65
2022-09-07T23:29:45.053Z,12.77
2022-09-07T23:32:12.694Z,11.32
2022-09-07T23:34:41.030Z,12.18
2022-09-07T23:37:09.858Z,12.40
2022-09-07T23:39:37.832Z,14.13
2022-09-07T23:42:05.934Z,13.25
2022-09-07T23:44:33.242Z,15.80
2022-09-07T23:47:00.014Z,14.50
2022-09-07T23:49:27.691Z,14.88
2022-09-07T23:51:56.410Z,15.07
2022-09-07T23:54:24.824Z,15.45
2022-09-07T23:56:52.534Z,15.55
2022-09-07T23:59:20.215Z,15.88
